Time;durP1;ratioP1;P1;durP2;ratioP2;P2;SDS_P1;SDS_P2;PMS_P1;PMS_P2;Temp;Humidity;BMP_temperature;BMP_pressure;BME280_temperature;BME280_humidity;BME280_pressure;Samples;Min_cycle;Max_cycle;Signal;HPM_P1;HPM_P2
2022/03/21 00:00:36;;;;;;;;;58.33;46.00;;;;;10.33;51.01;102440.28;5048249;28;45479;-63
2022/03/21 00:03:03;;;;;;;;;65.33;49.00;;;;;10.30;51.63;102434.28;5048110;28;45393;-66
2022/03/21 00:05:30;;;;;;;;;64.33;49.67;;;;;10.28;51.24;102434.31;5049975;28;46433;-67
2022/03/21 00:07:56;;;;;;;;;59.00;44.50;;;;;10.26;51.82;102433.50;5051292;28;46607;-70
2022/03/21 00:10:22;;;;;;;;;67.00;49.33;;;;;10.23;51.32;102435.38;5048923;28;45872;-67
2022/03/21 00:12:49;;;;;;;;;71.67;52.33;;;;;10.20;51.94;102435.44;5049982;28;45544;-66
2022/03/21 00:15:15;;;;;;;;;64.33;49.33;;;;;10.20;51.67;102433.66;5047848;28;45787;-64
2022/03/21 00:17:41;;;;;;;;;66.67;49.33;;;;;10.19;52.22;102438.97;5046859;28;45499;-64
2022/03/21 00:20:09;;;;;;;;;60.33;48.00;;;;;10.17;52.07;102438.16;5047946;28;45657;-63
2022/03/21 00:22:35;;;;;;;;;65.33;50.33;;;;;10.15;52.22;102439.97;5047534;28;45507;-63
2022/03/21 00:25:01;;;;;;;;;68.67;51.33;;;;;10.14;52.74;102435.63;5049325;28;45784;-64
2022/03/21 00:27:26;;;;;;;;;58.67;47.67;;;;;10.13;52.53;102439.16;5049092;28;45594;-65
2022/03/21 00:29:52;;;;;;;;;68.33;49.67;;;;;10.12;52.46;102440.09;5048522;28;45401;-63
2022/03/21 00:32:18;;;;;;;;;67.67;47.67;;;;;10.09;53.02;102441.00;5047365;28;45423;-64
2022/03/21 00:34:44;;;;;;;;;65.33;48.00;;;;;10.06;53.00;102438.47;5049023;28;45360;-66
2022/03/21 00:37:12;;;;;;;;;62.33;46.67;;;;;10.03;53.01;102434.19;5048244;28;45387;-64
2022/03/21 00:39:39;;;;;;;;;71.00;50.00;;;;;10.00;52.86;102436.88;5051081;28;45501;-64
2022/03/21 00:42:05;;;;;;;;;66.00;51.67;;;;;10.00;53.22;102433.41;5038936;28;45586;-71
2022/03/21 00:44:30;;;;;;;;;60.25;46.25;;;;;9.99;53.12;102436.94;5050731;28;46104;-76
2022/03/21 00:46:56;;;;;;;;;54.67;44.00;;;;;9.94;53.63;102433.56;5050602;28;45519;-74
2022/03/21 00:49:21;;;;;;;;;62.00;48.33;;;;;9.92;53.28;102435.38;5049094;28;45691;-68
2022/03/21 00:51:47;;;;;;;;;67.67;47.67;;;;;9.91;53.34;102425.78;5051776;28;45818;-67
2022/03/21 00:54:12;;;;;;;;;59.67;46.67;;;;;9.93;53.43;102429.22;5055751;28;46094;-78
2022/03/21 00:56:38;;;;;;;;;66.00;50.33;;;;;9.91;53.78;102425.78;5052049;28;45729;-67
2022/03/21 00:59:04;;;;;;;;;59.00;46.00;;;;;9.91;53.52;102425.78;5048340;28;45449;-63
2022/03/21 01:01:30;;;;;;;;;55.67;43.33;;;;;9.88;53.79;102425.88;5051735;28;45602;-67
2022/03/21 01:03:55;;;;;;;;;63.00;49.00;;;;;9.86;53.60;102431.16;5051158;28;45440;-63
2022/03/21 01:06:22;;;;;;;;;66.33;50.67;;;;;9.84;53.51;102422.44;5048137;28;45544;-64
2022/03/21 01:08:48;;;;;;;;;61.00;48.00;;;;;9.84;53.84;102430.34;5048106;28;45492;-62
2022/03/21 01:11:14;;;;;;;;;71.00;52.33;;;;;9.84;53.93;102429.50;5033690;28;45649;-63
2022/03/21 01:13:42;;;;;;;;;65.67;51.33;;;;;9.84;54.08;102434.75;5048697;28;45456;-72
2022/03/21 01:16:09;;;;;;;;;66.33;49.33;;;;;9.83;54.00;102438.28;5048424;28;45446;-63
2022/03/21 01:18:35;;;;;;;;;56.33;46.33;;;;;9.79;54.33;102426.97;5048171;28;45551;-63
2022/03/21 01:21:01;;;;;;;;;67.33;53.00;;;;;9.79;54.31;102434.88;5047691;28;45404;-68
2022/03/21 01:23:26;;;;;;;;;68.67;48.33;;;;;9.77;54.42;102434.06;5048815;28;45493;-68
2022/03/21 01:25:52;;;;;;;;;65.67;49.33;;;;;9.75;54.30;102428.00;5048831;28;45455;-75
2022/03/21 01:28:18;;;;;;;;;64.00;50.33;;;;;9.74;54.19;102428.91;5047970;28;45556;-63
2022/03/21 01:30:43;;;;;;;;;66.33;51.00;;;;;9.70;54.49;102425.47;5047547;28;45956;-64
2022/03/21 01:33:09;;;;;;;;;59.00;45.75;;;;;9.70;54.26;102433.38;5048315;28;46003;-61
2022/03/21 01:35:34;;;;;;;;;60.67;47.33;;;;;9.68;54.38;102431.69;5045647;28;45749;-62
2022/03/21 01:38:00;;;;;;;;;66.67;48.33;;;;;9.67;54.95;102429.97;5048048;28;45462;-64
2022/03/21 01:40:25;;;;;;;;;61.33;50.00;;;;;9.65;54.41;102430.03;5048742;28;45674;-63
2022/03/21 01:42:51;;;;;;;;;67.33;50.00;;;;;9.67;54.79;102435.25;5047202;28;45932;-66
2022/03/21 01:45:17;;;;;;;;;62.25;48.50;;;;;9.66;54.69;102434.38;5047185;28;46535;-71
2022/03/21 01:47:44;;;;;;;;;61.00;48.50;;;;;9.65;54.74;102439.69;5047960;28;45466;-67
2022/03/21 01:50:11;;;;;;;;;64.50;49.00;;;;;9.63;55.29;102437.06;5048385;28;45528;-67
2022/03/21 01:52:37;;;;;;;;;66.00;51.00;;;;;9.62;54.95;102427.47;5048892;28;45396;-64
2022/03/21 01:57:59;;;;;;;;;67.33;49.67;;;;;9.62;55.38;102432.72;5034666;28;45405;-69
2022/03/21 02:00:25;;;;;;;;;58.67;46.33;;;;;9.64;55.21;102446.72;5050084;28;45594;-78
2022/03/21 02:02:51;;;;;;;;;61.33;47.67;;;;;9.64;55.58;102445.88;5044271;28;45518;-76
2022/03/21 02:05:17;;;;;;;;;66.33;48.67;;;;;9.63;55.62;102436.22;5047899;28;45377;-77
2022/03/21 02:07:44;;;;;;;;;60.00;47.00;;;;;9.63;55.46;102433.59;5048731;28;45430;-78
2022/03/21 02:10:10;;;;;;;;;67.33;51.00;;;;;9.66;55.38;102441.41;5046772;28;45614;-78
2022/03/21 02:12:36;;;;;;;;;65.00;49.33;;;;;9.67;55.54;102443.13;5048804;28;45482;-78
2022/03/21 02:15:03;;;;;;;;;62.33;48.33;;;;;9.67;55.37;102435.25;5049956;28;45404;-78
2022/03/21 02:17:33;;;;;;;;;66.50;48.75;;;;;9.66;55.40;102431.75;5049238;28;45525;-77
2022/03/21 02:20:02;;;;;;;;;59.00;46.33;;;;;9.66;55.23;102434.38;5049346;28;45594;-77
2022/03/21 02:22:55;;;;;;;;;59.33;48.00;;;;;9.65;55.69;102434.44;5031110;28;46971;-77
2022/03/21 02:25:34;;;;;;;;;58.67;47.00;;;;;9.63;55.77;102428.31;5050026;28;45405;-78
2022/03/21 02:28:02;;;;;;;;;61.33;45.67;;;;;9.63;55.78;102425.69;5042588;28;45566;-78
2022/03/21 02:30:30;;;;;;;;;59.67;46.33;;;;;9.60;55.40;102431.91;5061330;28;45367;-78
2022/03/21 02:32:58;;;;;;;;;66.33;48.67;;;;;9.57;55.85;102432.00;5060504;28;45914;-77
2022/03/21 02:35:24;;;;;;;;;66.00;50.33;;;;;9.54;55.71;102416.28;5060930;28;45359;-78
2022/03/21 02:37:51;;;;;;;;;67.00;49.00;;;;;9.52;55.59;102412.84;5060381;28;45373;-78
2022/03/21 02:40:16;;;;;;;;;59.00;43.67;;;;;9.51;55.79;102419.88;5042539;28;45454;-78
2022/03/21 02:42:42;;;;;;;;;65.75;45.75;;;;;9.46;55.89;102413.00;5060105;28;45553;-77
2022/03/21 02:45:08;;;;;;;;;63.75;47.00;;;;;9.43;55.91;102413.13;5060650;28;45376;-78
2022/03/21 02:47:34;;;;;;;;;56.75;47.00;;;;;9.38;56.02;102415.00;5060076;28;45234;-78
2022/03/21 02:50:02;;;;;;;;;66.25;48.25;;;;;9.33;56.15;102419.53;5059025;28;45368;-78
2022/03/21 02:52:29;;;;;;;;;62.75;49.25;;;;;9.31;56.28;102410.81;5059661;28;46391;-78
2022/03/21 02:54:56;;;;;;;;;64.25;44.25;;;;;9.30;55.90;102409.09;5059696;28;45725;-78
2022/03/21 02:57:21;;;;;;;;;55.50;46.50;;;;;9.30;56.15;102409.09;5060151;28;45420;-78
2022/03/21 02:59:47;;;;;;;;;61.67;47.00;;;;;9.29;56.32;102413.47;5060268;28;45761;-77
2022/03/21 03:02:13;;;;;;;;;60.00;46.25;;;;;9.27;56.51;102415.31;5059758;28;45678;-78
2022/03/21 03:04:38;;;;;;;;;63.25;44.00;;;;;9.26;56.27;102413.56;5048426;28;45344;-78
2022/03/21 03:07:04;;;;;;;;;58.75;43.50;;;;;9.26;56.58;102412.72;5039847;28;45712;-78
2022/03/21 03:09:29;;;;;;;;;58.25;46.25;;;;;9.26;56.50;102415.34;5039405;28;45371;-77
2022/03/21 03:11:55;;;;;;;;;55.00;45.75;;;;;9.26;56.64;102424.09;5039378;28;45333;-78
2022/03/21 03:14:21;;;;;;;;;60.25;46.75;;;;;9.28;56.71;102417.03;5040104;28;45168;-77
2022/03/21 03:16:47;;;;;;;;;59.50;47.00;;;;;9.29;56.30;102416.09;5038721;28;45520;-78
2022/03/21 03:19:12;;;;;;;;;58.25;46.25;;;;;9.28;56.86;102409.13;5037619;28;45421;-77
2022/03/21 03:21:43;;;;;;;;;63.25;46.00;;;;;9.28;56.58;102417.03;5037458;28;45826;-77
2022/03/21 03:24:10;;;;;;;;;60.00;47.25;;;;;9.30;56.60;102415.19;5037737;28;45466;-77
2022/03/21 03:26:36;;;;;;;;;63.25;48.00;;;;;9.29;56.85;102410.00;5037730;28;45353;-78
2022/03/21 03:29:02;;;;;;;;;62.25;48.25;;;;;9.29;56.59;102415.25;5038713;28;45484;-78
2022/03/21 03:31:29;;;;;;;;;58.00;45.75;;;;;9.29;56.84;102420.50;5039376;28;45444;-78
2022/03/21 03:33:54;;;;;;;;;60.75;44.00;;;;;9.30;56.75;102427.50;5039903;28;45419;-78
2022/03/21 03:36:20;;;;;;;;;60.25;44.75;;;;;9.30;56.94;102423.09;5039594;28;45411;-77
2022/03/21 03:38:47;;;;;;;;;58.00;43.25;;;;;9.32;56.79;102423.94;5042626;28;45427;-77
2022/03/21 03:41:13;;;;;;;;;61.50;46.75;;;;;9.33;57.29;102430.06;5043841;28;45337;-78
2022/03/21 03:43:39;;;;;;;;;59.50;45.75;;;;;9.32;56.78;102428.31;5043591;28;45479;-77
2022/03/21 03:46:05;;;;;;;;;61.25;47.00;;;;;9.33;56.68;102425.66;5043140;28;45364;-78
2022/03/21 03:48:31;;;;;;;;;47.50;42.00;;;;;9.34;56.88;102423.88;5043533;28;45439;-78
2022/03/21 03:50:57;;;;;;;;;60.75;46.50;;;;;9.36;56.96;102425.56;5043167;28;45407;-78
2022/03/21 03:53:22;;;;;;;;;62.33;47.33;;;;;9.39;56.93;102427.25;5044851;28;45279;-78
2022/03/21 03:55:48;;;;;;;;;60.00;45.00;;;;;9.40;56.83;102428.97;5043102;28;45383;-78
2022/03/21 03:58:14;;;;;;;;;61.50;44.25;;;;;9.41;57.26;102433.34;5043415;28;45337;-78
2022/03/21 04:00:39;;;;;;;;;58.25;45.50;;;;;9.46;56.91;102434.06;5042719;28;45338;-78
2022/03/21 04:05:49;;;;;;;;;55.75;42.75;;;;;9.49;56.90;102432.22;5043319;28;45403;-78
2022/03/21 04:08:16;;;;;;;;;63.25;50.00;;;;;9.51;56.98;102435.66;5043376;28;45470;-76
2022/03/21 04:10:41;;;;;;;;;61.00;49.50;;;;;9.53;56.77;102435.63;5043022;28;46181;-77
2022/03/21 04:13:07;;;;;;;;;54.67;45.33;;;;;9.52;56.67;102440.00;5056587;28;45302;-77
2022/03/21 04:15:32;;;;;;;;;55.00;40.25;;;;;9.53;56.86;102443.50;5043082;28;45368;-78
2022/03/21 04:18:02;;;;;;;;;65.00;49.33;;;;;9.53;56.87;102446.13;5042457;28;45481;-78
2022/03/21 04:20:31;;;;;;;;;58.00;44.67;;;;;9.55;56.75;102446.94;5050950;28;45901;-77
2022/03/21 04:23:00;;;;;;;;;28.25;19.50;;;;;9.56;57.33;102453.97;5047473;28;45397;-78
2022/03/21 04:25:26;;;;;;;;;54.75;42.50;;;;;9.58;56.88;102451.28;5042543;28;45249;-77
2022/03/21 04:27:52;;;;;;;;;57.00;46.00;;;;;9.58;57.08;102446.03;5042791;28;45230;-78
2022/03/21 04:30:17;;;;;;;;;64.67;48.00;;;;;9.58;56.85;102454.78;5042618;28;45299;-77
2022/03/21 04:32:44;;;;;;;;;58.75;44.00;;;;;9.56;56.84;102453.06;5042323;28;45289;-77
2022/03/21 04:35:10;;;;;;;;;64.67;46.33;;;;;9.54;57.28;102452.25;5042765;28;45356;-78
2022/03/21 04:37:37;;;;;;;;;54.75;44.50;;;;;9.50;56.98;102462.88;5042682;28;45517;-78
2022/03/21 04:40:04;;;;;;;;;63.33;47.67;;;;;9.50;56.99;102467.28;5044273;28;46182;-78
2022/03/21 04:42:29;;;;;;;;;65.00;46.50;;;;;9.52;57.28;102466.31;5042128;28;45325;-78
2022/03/21 04:44:55;;;;;;;;;63.75;47.50;;;;;9.53;57.47;102459.28;5042532;28;45403;-78
2022/03/21 04:47:21;;;;;;;;;39.50;34.50;;;;;9.54;57.19;102463.66;5052378;28;45295;-78
2022/03/21 04:49:47;;;;;;;;;58.67;46.00;;;;;9.56;57.12;102463.59;5042021;28;46289;-78
2022/03/21 04:52:13;;;;;;;;;60.33;46.33;;;;;9.57;57.52;102475.88;5042171;28;45299;-77
2022/03/21 04:54:39;;;;;;;;;57.25;47.50;;;;;9.57;57.60;102479.38;5042814;28;45341;-78
2022/03/21 04:57:06;;;;;;;;;60.67;44.67;;;;;9.58;57.58;102474.97;5042220;28;45306;-77
2022/03/21 04:59:33;;;;;;;;;61.67;48.67;;;;;9.61;57.30;102472.25;5042250;28;46129;-77
2022/03/21 05:01:59;;;;;;;;;68.00;48.00;;;;;9.64;57.59;102473.03;5041743;28;45253;-78
2022/03/21 05:04:26;;;;;;;;;64.00;48.33;;;;;9.66;57.23;102479.09;5043911;28;45269;-78
2022/03/21 05:06:53;;;;;;;;;64.75;48.75;;;;;9.68;57.73;102477.28;5042159;28;45238;-78
2022/03/21 05:09:19;;;;;;;;;63.25;46.25;;;;;9.71;57.55;102473.69;5041685;28;46351;-77
2022/03/21 05:11:44;;;;;;;;;59.50;48.25;;;;;9.75;57.43;102470.09;5041959;28;45380;-77
2022/03/21 05:14:10;;;;;;;;;66.67;52.67;;;;;9.75;57.41;102475.34;5042267;28;45316;-78
2022/03/21 05:16:36;;;;;;;;;56.50;46.00;;;;;9.75;57.53;102481.47;5041805;28;45242;-78
2022/03/21 05:19:02;;;;;;;;;61.25;46.25;;;;;9.77;57.33;102486.69;5041625;28;46337;-78
2022/03/21 05:21:28;;;;;;;;;58.00;43.75;;;;;9.78;57.59;102484.00;5025888;28;45479;-77
2022/03/21 05:32:05;;;;;;;;;62.50;46.75;;;;;9.81;57.34;102482.22;5041710;28;45472;-78
2022/03/21 05:37:15;;;;;;;;;60.33;48.33;;;;;9.81;57.67;102482.22;5055689;28;45399;-78
2022/03/21 05:40:31;;;;;;;;;60.75;47.00;;;;;9.84;57.82;102485.63;5054059;28;45467;-78
2022/03/21 05:42:26;;;;;;;;;62.25;46.00;;;;;9.84;57.85;102492.66;5041245;28;45477;-78
2022/03/21 05:44:52;;;;;;;;;70.50;49.75;;;;;9.85;58.05;102495.25;5041703;28;45611;-78
2022/03/21 05:47:17;;;;;;;;;66.00;47.00;;;;;9.90;57.97;102495.13;5041261;28;45423;-78
2022/03/21 05:49:43;;;;;;;;;61.00;44.00;;;;;9.92;57.49;102501.19;5041304;28;45358;-79
2022/03/21 05:52:08;;;;;;;;;61.00;44.75;;;;;9.92;57.81;102490.66;5041119;28;45361;-78
2022/03/21 05:54:34;;;;;;;;;60.33;48.33;;;;;9.92;57.98;102502.06;5050237;28;45292;-79
2022/03/21 05:56:59;;;;;;;;;59.25;46.25;;;;;9.91;57.49;102502.97;5061521;28;45300;-78
2022/03/21 06:02:09;;;;;;;;;62.75;50.50;;;;;9.86;58.00;102498.72;5060920;28;45431;-78
2022/03/21 06:04:34;;;;;;;;;66.67;47.33;;;;;9.86;57.89;102504.00;5049591;28;45301;-78
2022/03/21 06:07:00;;;;;;;;;67.00;47.75;;;;;9.84;57.68;102504.03;5040966;28;45229;-79
2022/03/21 06:09:26;;;;;;;;;64.67;48.67;;;;;9.80;58.14;102497.16;5049975;28;45782;-78
2022/03/21 06:11:51;;;;;;;;;58.00;46.67;;;;;9.81;58.05;102514.66;5053963;28;46264;-78
2022/03/21 06:14:20;;;;;;;;;64.33;49.00;;;;;9.81;58.25;102516.44;5041109;28;45147;-78
2022/03/21 06:16:47;;;;;;;;;62.75;44.00;;;;;9.81;57.98;102516.44;5043604;28;45372;-77
2022/03/21 06:19:12;;;;;;;;;68.67;53.00;;;;;9.82;58.55;102519.03;5046848;28;46357;-77
2022/03/21 06:21:38;;;;;;;;;69.67;50.67;;;;;9.82;58.20;102523.44;5061663;28;45359;-77
2022/03/21 06:24:03;;;;;;;;;59.67;44.00;;;;;9.83;58.32;102528.66;5061859;28;45469;-78
2022/03/21 06:26:29;;;;;;;;;67.00;49.33;;;;;9.84;59.01;102529.50;5041233;28;45301;-78
2022/03/21 06:28:55;;;;;;;;;59.75;47.00;;;;;9.85;58.83;102541.75;5040889;28;45235;-78
2022/03/21 06:31:20;;;;;;;;;60.00;49.67;;;;;9.89;58.55;102535.53;5046021;28;45439;-78
2022/03/21 06:33:45;;;;;;;;;61.00;46.67;;;;;9.93;58.74;102548.53;5040958;28;45178;-77
2022/03/21 06:36:11;;;;;;;;;63.67;50.33;;;;;9.97;58.53;102549.34;5045119;28;45170;-78
2022/03/21 06:38:37;;;;;;;;;65.67;49.00;;;;;10.02;58.08;102553.53;5050694;28;45330;-70
2022/03/21 06:41:05;;;;;;;;;63.75;50.00;;;;;10.09;58.31;102562.13;5049988;28;45249;-70
2022/03/21 06:43:30;;;;;;;;;61.67;49.67;;;;;10.17;58.71;102562.78;5048667;28;45261;-70
2022/03/21 06:45:56;;;;;;;;;69.00;52.00;;;;;10.26;58.36;102567.81;5050477;28;45565;-69
2022/03/21 06:48:24;;;;;;;;;66.33;52.33;;;;;10.36;58.47;102571.06;5060112;28;46037;-70
2022/03/21 06:50:53;;;;;;;;;69.67;51.33;;;;;10.45;58.01;102568.16;5060234;28;45441;-73
2022/03/21 06:53:19;;;;;;;;;60.00;47.33;;;;;10.54;57.89;102567.03;5060190;28;45235;-72
2022/03/21 06:55:46;;;;;;;;;64.67;53.00;;;;;10.60;57.58;102569.47;5060013;28;45423;-69
2022/03/21 06:58:13;;;;;;;;;65.00;50.33;;;;;10.68;58.27;102579.78;5060403;28;45450;-69
2022/03/21 07:00:43;;;;;;;;;65.00;51.33;;;;;10.71;57.57;102574.41;5060019;28;45245;-69
2022/03/21 07:03:09;;;;;;;;;73.33;51.00;;;;;10.72;58.13;102579.63;5059862;28;45300;-69
2022/03/21 07:05:36;;;;;;;;;64.33;51.00;;;;;10.75;57.94;102579.56;5043450;28;45415;-69
2022/03/21 07:08:03;;;;;;;;;62.00;46.67;;;;;10.77;57.73;102575.09;5055208;28;45311;-67
2022/03/21 07:10:29;;;;;;;;;66.00;52.00;;;;;10.85;58.04;102582.78;5059826;28;45465;-68
2022/03/21 07:12:54;;;;;;;;;66.67;50.00;;;;;10.96;57.67;102578.00;5063251;28;45422;-69
2022/03/21 07:15:20;;;;;;;;;62.33;49.33;;;;;11.08;57.42;102587.34;5063835;28;45348;-67
2022/03/21 07:17:45;;;;;;;;;71.67;51.33;;;;;11.18;57.77;102588.75;5063319;28;45860;-70
2022/03/21 07:20:12;;;;;;;;;65.33;50.33;;;;;11.27;57.39;102590.22;5044982;28;45301;-66
2022/03/21 07:22:39;;;;;;;;;67.00;51.00;;;;;11.35;57.40;102588.19;5063720;28;45392;-66
2022/03/21 07:25:06;;;;;;;;;70.67;50.33;;;;;11.44;57.15;102598.44;5054468;28;45213;-66
2022/03/21 07:27:32;;;;;;;;;63.75;48.75;;;;;11.52;56.95;102592.91;5043134;28;45353;-68
2022/03/21 07:29:58;;;;;;;;;68.67;52.00;;;;;11.60;57.14;102585.59;5043087;28;45300;-68
2022/03/21 07:32:24;;;;;;;;;62.50;49.50;;;;;11.67;57.23;102587.13;5042917;28;45336;-70
2022/03/21 07:34:49;;;;;;;;;64.25;45.25;;;;;11.74;56.80;102583.34;5042812;28;45370;-70
2022/03/21 07:37:15;;;;;;;;;67.50;49.50;;;;;11.83;56.85;102575.13;5025164;28;45527;-69
2022/03/21 07:39:44;;;;;;;;;68.00;50.25;;;;;11.95;56.56;102585.28;5045155;28;45143;-68
2022/03/21 07:42:14;;;;;;;;;61.00;48.25;;;;;12.08;56.59;102583.03;5043101;28;45435;-69
2022/03/21 07:47:23;;;;;;;;;58.50;46.75;;;;;12.39;55.92;102595.13;5062791;28;45530;-68
2022/03/21 07:49:51;;;;;;;;;66.50;50.00;;;;;12.50;55.77;102595.63;5062954;28;45337;-70
2022/03/21 07:52:18;;;;;;;;;62.50;48.50;;;;;12.63;55.64;102594.22;5063121;28;45250;-70
2022/03/21 07:54:51;;;;;;;;;62.00;46.50;;;;;12.76;55.23;102592.84;5062907;28;45351;-72
2022/03/21 07:57:17;;;;;;;;;61.00;46.75;;;;;12.92;54.97;102589.59;5062974;28;45359;-69
2022/03/21 07:59:42;;;;;;;;;60.25;46.00;;;;;13.03;54.95;102596.19;5060783;28;45387;-69
2022/03/21 08:02:08;;;;;;;;;57.25;43.50;;;;;13.14;54.46;102596.63;5053266;28;45471;-69
2022/03/21 08:04:33;;;;;;;;;57.25;43.50;;;;;13.26;54.46;102594.41;5052756;28;45293;-73
2022/03/21 08:06:59;;;;;;;;;50.25;40.50;;;;;13.34;54.43;102590.53;5049703;28;46469;-69
2022/03/21 08:09:27;;;;;;;;;54.25;43.00;;;;;13.47;54.07;102590.03;5051397;28;45304;-68
2022/03/21 08:11:54;;;;;;;;;55.25;41.00;;;;;13.55;53.83;102603.81;5050536;28;45266;-69
2022/03/21 08:14:20;;;;;;;;;55.00;42.00;;;;;13.58;53.66;102599.22;5052900;28;45367;-69
2022/03/21 08:16:46;;;;;;;;;59.50;43.00;;;;;13.66;53.35;102606.84;5052786;28;45360;-68
2022/03/21 08:19:11;;;;;;;;;54.00;42.00;;;;;13.78;53.42;102602.84;5053561;28;45221;-67
2022/03/21 08:21:37;;;;;;;;;59.25;40.25;;;;;13.88;53.11;102593.56;5053273;28;45502;-67
2022/03/21 08:24:03;;;;;;;;;44.75;39.25;;;;;14.00;52.74;102602.78;5051340;28;45386;-68
2022/03/21 08:26:29;;;;;;;;;56.50;42.75;;;;;14.15;52.52;102596.78;5045881;28;46334;-68
2022/03/21 08:28:54;;;;;;;;;51.25;38.25;;;;;14.26;52.38;102605.13;5056891;28;45298;-68
2022/03/21 08:31:20;;;;;;;;;46.00;39.25;;;;;14.33;51.94;102597.75;5055632;28;45268;-69
2022/03/21 08:33:45;;;;;;;;;58.25;42.75;;;;;14.39;51.98;102595.69;5052464;28;45416;-68
2022/03/21 08:36:12;;;;;;;;;51.25;39.25;;;;;14.46;51.47;102597.16;5053487;28;46046;-67
2022/03/21 08:38:39;;;;;;;;;51.00;39.25;;;;;14.56;51.64;102597.59;5051495;28;45322;-68
2022/03/21 08:41:04;;;;;;;;;56.75;43.25;;;;;14.72;51.51;102595.94;5051293;28;45598;-69
2022/03/21 08:43:29;;;;;;;;;51.75;39.50;;;;;14.88;51.10;102600.53;5050837;28;45491;-68
2022/03/21 08:45:55;;;;;;;;;44.00;34.50;;;;;15.01;50.73;102604.31;5048789;28;46026;-68
2022/03/21 08:49:23;;;;;;;;;46.50;36.00;;;;;15.09;50.23;102599.50;5051617;28;45524;-69
2022/03/21 08:51:06;;;;;;;;;45.00;36.50;;;;;15.12;50.04;102602.00;5050693;28;45487;-69
2022/03/21 08:53:32;;;;;;;;;45.00;36.50;;;;;15.13;49.96;102601.06;5051046;28;45434;-73
2022/03/21 08:55:58;;;;;;;;;45.00;36.00;;;;;15.16;50.12;102608.84;5052461;28;46250;-73
2022/03/21 08:58:23;;;;;;;;;48.25;37.25;;;;;15.20;49.79;102601.63;5051506;28;45529;-73
2022/03/21 09:00:49;;;;;;;;;48.50;38.25;;;;;15.25;49.88;102596.97;5050736;28;45249;-74
2022/03/21 09:03:15;;;;;;;;;47.50;33.75;;;;;15.30;50.05;102600.22;5050088;28;45499;-73
2022/03/21 09:05:40;;;;;;;;;49.50;37.50;;;;;15.34;49.96;102597.34;5048064;28;45943;-75
2022/03/21 09:08:08;;;;;;;;;43.75;35.25;;;;;15.34;49.37;102602.66;5048593;28;45416;-73
2022/03/21 09:10:34;;;;;;;;;52.75;39.50;;;;;15.36;49.62;102602.59;5046402;28;45345;-74
2022/03/21 09:12:59;;;;;;;;;45.75;36.00;;;;;15.36;49.36;102600.78;5051046;28;45443;-74
2022/03/21 09:15:26;;;;;;;;;47.00;35.00;;;;;15.36;49.38;102603.44;5050038;28;45236;-74
2022/03/21 09:17:51;;;;;;;;;41.75;33.50;;;;;15.37;48.89;102601.66;5049714;28;45254;-74
2022/03/21 09:20:17;;;;;;;;;35.75;31.50;;;;;15.36;49.06;102590.16;5049392;28;45288;-74
2022/03/21 09:22:42;;;;;;;;;34.25;27.00;;;;;15.33;49.09;102593.00;5048972;28;45581;-73
2022/03/21 09:25:08;;;;;;;;;40.50;35.00;;;;;15.27;48.91;102593.28;5048149;28;45557;-74
2022/03/21 09:27:37;;;;;;;;;43.75;33.50;;;;;15.27;49.14;102595.94;5048347;28;45494;-74
2022/03/21 09:30:03;;;;;;;;;41.75;33.75;;;;;15.32;49.13;102588.63;5048278;28;45634;-73
2022/03/21 09:32:29;;;;;;;;;39.00;33.25;;;;;15.36;49.11;102590.16;5053215;28;46578;-74
2022/03/21 09:34:54;;;;;;;;;36.00;33.00;;;;;15.40;48.78;102588.19;5050170;28;45477;-74
2022/03/21 09:37:19;;;;;;;;;37.75;32.50;;;;;15.45;48.85;102591.50;5045799;28;45384;-74
2022/03/21 09:39:45;;;;;;;;;38.25;33.00;;;;;15.50;48.66;102585.97;5050948;28;45318;-74
2022/03/21 09:42:12;;;;;;;;;42.50;34.00;;;;;15.55;48.31;102590.09;5040857;28;45341;-73
2022/03/21 09:44:38;;;;;;;;;34.75;29.50;;;;;15.59;48.54;102596.13;5041151;28;45312;-73
2022/03/21 09:48:08;;;;;;;;;37.50;32.00;;;;;15.65;48.61;102592.34;5041225;28;45159;-72
2022/03/21 09:49:51;;;;;;;;;53.75;38.00;;;;;15.70;48.74;102590.28;5041391;28;45392;-74
2022/03/21 09:52:18;;;;;;;;;36.00;32.25;;;;;15.72;48.32;102589.28;5041208;28;45533;-75
2022/03/21 09:54:43;;;;;;;;;33.00;30.25;;;;;15.75;48.27;102578.50;5051577;28;45358;-74
2022/03/21 09:57:08;;;;;;;;;33.00;27.00;;;;;15.82;48.15;102581.69;5043746;28;45384;-74
2022/03/21 09:59:34;;;;;;;;;35.00;31.75;;;;;15.86;47.85;102578.78;5062024;28;45343;-75
2022/03/21 10:02:02;;;;;;;;;30.50;25.75;;;;;15.94;48.23;102577.53;5061677;28;45296;-75
2022/03/21 10:04:27;;;;;;;;;21.50;19.25;;;;;15.98;47.74;102568.47;5052348;28;45462;-75
2022/03/21 10:06:59;;;;;;;;;19.25;18.50;;;;;15.99;47.58;102567.53;5041697;28;45221;-75
2022/03/21 10:09:25;;;;;;;;;26.50;21.00;;;;;16.04;47.88;102573.47;5041491;28;45326;-74
2022/03/21 10:11:58;;;;;;;;;24.00;22.25;;;;;16.07;47.20;102574.16;5041023;28;45578;-74
2022/03/21 10:14:27;;;;;;;;;35.25;29.00;;;;;16.13;47.21;102570.31;5041215;28;46339;-74
2022/03/21 10:17:03;;;;;;;;;23.00;19.00;;;;;16.18;47.40;102568.25;5040579;28;45271;-74
2022/03/21 10:19:43;;;;;;;;;26.00;22.25;;;;;16.25;47.63;102566.13;5040960;28;45322;-73
2022/03/21 10:22:12;;;;;;;;;22.75;20.00;;;;;16.33;47.61;102571.88;5041127;28;45280;-74
2022/03/21 10:24:45;;;;;;;;;26.50;24.75;;;;;16.35;47.14;102570.00;5040565;28;45277;-74
2022/03/21 10:27:29;;;;;;;;;22.25;18.75;;;;;16.39;47.14;102574.22;5040815;28;45183;-75
2022/03/21 10:30:00;;;;;;;;;16.75;16.50;;;;;16.45;46.86;102565.91;5047662;28;45220;-75
2022/03/21 10:32:52;;;;;;;;;18.75;16.25;;;;;16.53;46.44;102561.03;5061225;28;45262;-74
2022/03/21 10:35:29;;;;;;;;;20.50;18.00;;;;;16.60;46.46;102559.75;5058436;28;46759;-74
2022/03/21 10:37:58;;;;;;;;;52.50;30.50;;;;;16.66;46.92;102561.19;5060815;28;45363;-74
2022/03/21 10:40:41;;;;;;;;;20.25;18.00;;;;;16.67;46.13;102557.59;5029950;28;45440;-74
2022/03/21 10:43:09;;;;;;;;;18.25;15.25;;;;;16.62;46.34;102551.66;5040742;28;45681;-75
2022/03/21 10:45:35;;;;;;;;;16.00;13.50;;;;;16.63;46.52;102548.91;5040259;28;45283;-73
2022/03/21 10:48:03;;;;;;;;;15.25;15.25;;;;;16.70;46.28;102553.00;5040468;28;45253;-74
2022/03/21 10:50:34;;;;;;;;;22.50;18.00;;;;;16.79;46.21;102553.41;5040686;28;45431;-74
2022/03/21 10:53:05;;;;;;;;;13.25;12.25;;;;;16.84;45.90;102554.88;5040945;28;45238;-75
2022/03/21 10:55:31;;;;;;;;;18.50;15.75;;;;;16.89;46.00;102551.94;5056936;28;46528;-74
2022/03/21 10:57:56;;;;;;;;;20.75;19.00;;;;;16.94;46.04;102549.88;5060705;28;45320;-73
2022/03/21 11:00:26;;;;;;;;;17.25;15.75;;;;;17.00;46.11;102544.22;5060752;28;45458;-74
2022/03/21 11:03:14;;;;;;;;;24.25;18.25;;;;;17.04;45.71;102548.41;5060663;28;45412;-75
2022/03/21 11:05:42;;;;;;;;;22.50;20.25;;;;;17.06;46.04;102542.97;5046835;28;46221;-74
2022/03/21 11:08:11;;;;;;;;;21.50;20.25;;;;;17.09;45.91;102540.16;5060503;28;45277;-73
2022/03/21 11:10:37;;;;;;;;;29.00;24.25;;;;;17.15;45.58;102535.34;5060543;28;45268;-73
2022/03/21 11:13:05;;;;;;;;;19.75;18.75;;;;;17.19;45.81;102536.00;5061012;28;45421;-73
2022/03/21 11:15:31;;;;;;;;;19.00;18.75;;;;;17.22;45.22;102535.81;5060300;28;45438;-74
2022/03/21 11:17:57;;;;;;;;;20.25;18.00;;;;;17.22;45.10;102531.38;5060178;28;45325;-73
2022/03/21 11:20:23;;;;;;;;;32.75;28.50;;;;;17.27;45.17;102528.41;5060149;28;45470;-73
2022/03/21 11:22:49;;;;;;;;;21.50;16.50;;;;;17.36;45.09;102521.69;5060882;28;45315;-74
2022/03/21 11:25:21;;;;;;;;;18.50;14.75;;;;;17.39;44.75;102519.72;5049595;28;45241;-74
2022/03/21 11:27:58;;;;;;;;;18.25;14.00;;;;;17.44;44.99;102528.28;5040111;28;45515;-75
2022/03/21 11:30:48;;;;;;;;;17.50;16.00;;;;;17.48;44.63;102521.81;5040344;28;45630;-76
2022/03/21 11:33:32;;;;;;;;;17.25;13.50;;;;;17.50;44.59;102506.59;5047564;28;45287;-74
2022/03/21 11:36:04;;;;;;;;;20.00;18.00;;;;;17.50;44.48;102505.75;5059922;28;45476;-74